sensor_id;sensor_type;location;lat;lon;timestamp;pressure;altitude;pressure_sealevel;temperature;humidity
41503;BME280;27237;42.554;22.966;2022-07-10T00:01:12;93157.03;;;17.27;64.10
41503;BME280;27237;42.554;22.966;2022-07-10T00:03:38;93146.16;;;17.19;63.83
41503;BME280;27237;42.554;22.966;2022-07-10T00:06:03;93165.06;;;17.27;63.99
41503;BME280;27237;42.554;22.966;2022-07-10T00:08:29;93162.41;;;17.27;64.25
41503;BME280;27237;42.554;22.966;2022-07-10T00:10:54;93159.00;;;17.22;64.00
41503;BME280;27237;42.554;22.966;2022-07-10T00:13:20;93164.03;;;17.23;64.02
41503;BME280;27237;42.554;22.966;2022-07-10T00:15:45;93168.41;;;17.19;64.22
41503;BME280;27237;42.554;22.966;2022-07-10T00:18:11;93167.31;;;17.20;63.90
41503;BME280;27237;42.554;22.966;2022-07-10T00:20:36;93161.22;;;17.15;64.21
41503;BME280;27237;42.554;22.966;2022-07-10T00:23:02;93164.16;;;17.18;64.19
41503;BME280;27237;42.554;22.966;2022-07-10T00:25:28;93166.00;;;17.18;64.46
41503;BME280;27237;42.554;22.966;2022-07-10T00:27:53;93148.72;;;17.10;64.50
41503;BME280;27237;42.554;22.966;2022-07-10T00:30:19;93160.44;;;17.14;64.61
41503;BME280;27237;42.554;22.966;2022-07-10T00:32:44;93157.97;;;17.18;64.67
41503;BME280;27237;42.554;22.966;2022-07-10T00:35:10;93152.91;;;17.16;64.71
41503;BME280;27237;42.554;22.966;2022-07-10T00:37:36;93138.84;;;17.05;64.67
41503;BME280;27237;42.554;22.966;2022-07-10T00:40:04;93103.44;;;16.90;64.72
41503;BME280;27237;42.554;22.966;2022-07-10T00:42:30;93140.88;;;17.14;64.73
41503;BME280;27237;42.554;22.966;2022-07-10T00:44:56;93158.19;;;17.21;64.90
41503;BME280;27237;42.554;22.966;2022-07-10T00:47:21;93163.06;;;17.19;64.86
41503;BME280;27237;42.554;22.966;2022-07-10T00:49:47;93144.34;;;17.14;64.61
41503;BME280;27237;42.554;22.966;2022-07-10T00:52:15;93153.44;;;17.18;64.92
41503;BME280;27237;42.554;22.966;2022-07-10T00:54:44;93150.75;;;17.18;65.03
41503;BME280;27237;42.554;22.966;2022-07-10T00:57:10;93152.91;;;17.16;65.22
41503;BME280;27237;42.554;22.966;2022-07-10T00:59:37;93144.06;;;17.16;65.09
41503;BME280;27237;42.554;22.966;2022-07-10T01:02:04;93119.59;;;17.03;65.26
41503;BME280;27237;42.554;22.966;2022-07-10T01:04:30;93127.34;;;17.05;65.25
41503;BME280;27237;42.554;22.966;2022-07-10T01:06:56;93142.19;;;17.16;65.14
41503;BME280;27237;42.554;22.966;2022-07-10T01:09:22;93130.94;;;17.14;65.32
41503;BME280;27237;42.554;22.966;2022-07-10T01:11:48;93118.34;;;17.15;65.61
41503;BME280;27237;42.554;22.966;2022-07-10T01:14:15;93129.06;;;17.15;65.71
41503;BME280;27237;42.554;22.966;2022-07-10T01:16:41;93093.53;;;16.90;65.52
41503;BME280;27237;42.554;22.966;2022-07-10T01:19:06;93118.06;;;17.16;65.53
41503;BME280;27237;42.554;22.966;2022-07-10T01:21:34;93128.78;;;17.16;65.28
41503;BME280;27237;42.554;22.966;2022-07-10T01:24:04;93120.22;;;17.14;64.99
41503;BME280;27237;42.554;22.966;2022-07-10T01:26:30;93104.81;;;17.06;64.58
41503;BME280;27237;42.554;22.966;2022-07-10T01:28:56;93099.50;;;17.01;64.74
41503;BME280;27237;42.554;22.966;2022-07-10T01:31:26;93119.72;;;17.12;64.80
41503;BME280;27237;42.554;22.966;2022-07-10T01:33:52;93115.72;;;17.10;64.82
41503;BME280;27237;42.554;22.966;2022-07-10T01:36:18;93106.91;;;17.09;64.94
41503;BME280;27237;42.554;22.966;2022-07-10T01:38:43;93112.25;;;17.09;65.20
41503;BME280;27237;42.554;22.966;2022-07-10T01:41:09;93106.91;;;17.09;64.89
41503;BME280;27237;42.554;22.966;2022-07-10T01:43:37;93108.78;;;17.09;65.42
41503;BME280;27237;42.554;22.966;2022-07-10T01:46:03;93104.28;;;17.04;65.30
41503;BME280;27237;42.554;22.966;2022-07-10T01:48:30;93084.91;;;16.93;65.69
41503;BME280;27237;42.554;22.966;2022-07-10T01:50:56;93109.59;;;17.09;65.88
41503;BME280;27237;42.554;22.966;2022-07-10T01:53:22;93108.00;;;17.08;65.61
41503;BME280;27237;42.554;22.966;2022-07-10T01:55:48;93109.59;;;17.09;65.14
41503;BME280;27237;42.554;22.966;2022-07-10T01:58:13;93107.47;;;17.06;64.86
41503;BME280;27237;42.554;22.966;2022-07-10T02:00:39;93097.88;;;17.05;65.01
41503;BME280;27237;42.554;22.966;2022-07-10T02:03:04;93100.03;;;17.03;64.95
41503;BME280;27237;42.554;22.966;2022-07-10T02:05:48;93105.19;;;16.99;65.11
41503;BME280;27237;42.554;22.966;2022-07-10T02:08:14;93099.31;;;16.97;65.47
41503;BME280;27237;42.554;22.966;2022-07-10T02:10:39;93091.84;;;16.94;65.43
41503;BME280;27237;42.554;22.966;2022-07-10T02:13:05;93079.13;;;16.86;65.72
41503;BME280;27237;42.554;22.966;2022-07-10T02:15:30;93069.91;;;16.73;65.80
41503;BME280;27237;42.554;22.966;2022-07-10T02:17:56;93092.66;;;16.95;65.84
41503;BME280;27237;42.554;22.966;2022-07-10T02:20:21;93096.44;;;16.94;66.04
41503;BME280;27237;42.554;22.966;2022-07-10T02:22:47;93065.13;;;16.70;66.29
41503;BME280;27237;42.554;22.966;2022-07-10T02:25:12;93068.25;;;16.77;66.40
41503;BME280;27237;42.554;22.966;2022-07-10T02:27:37;93072.97;;;16.86;66.21
41503;BME280;27237;42.554;22.966;2022-07-10T02:30:04;93079.56;;;16.93;65.96
41503;BME280;27237;42.554;22.966;2022-07-10T02:32:30;93088.31;;;16.99;65.82
41503;BME280;27237;42.554;22.966;2022-07-10T02:34:55;93088.31;;;16.99;65.86
41503;BME280;27237;42.554;22.966;2022-07-10T02:37:21;93089.91;;;17.00;65.62
41503;BME280;27237;42.554;22.966;2022-07-10T02:39:46;93081.13;;;16.94;65.76
41503;BME280;27237;42.554;22.966;2022-07-10T02:42:12;93084.34;;;16.96;65.78
41503;BME280;27237;42.554;22.966;2022-07-10T02:44:37;93084.81;;;16.98;65.70
41503;BME280;27237;42.554;22.966;2022-07-10T02:47:02;93088.91;;;16.96;65.42
41503;BME280;27237;42.554;22.966;2022-07-10T02:49:28;93090.28;;;16.93;65.02
41503;BME280;27237;42.554;22.966;2022-07-10T02:51:53;93089.03;;;16.86;64.51
41503;BME280;27237;42.554;22.966;2022-07-10T02:54:19;93088.59;;;16.78;64.01
41503;BME280;27237;42.554;22.966;2022-07-10T02:56:44;93095.88;;;16.73;63.99
41503;BME280;27237;42.554;22.966;2022-07-10T02:59:10;93087.69;;;16.64;64.22
41503;BME280;27237;42.554;22.966;2022-07-10T03:01:35;93097.41;;;16.60;64.26
41503;BME280;27237;42.554;22.966;2022-07-10T03:04:01;93095.38;;;16.52;63.87
41503;BME280;27237;42.554;22.966;2022-07-10T03:06:27;93090.41;;;16.45;64.17
41503;BME280;27237;42.554;22.966;2022-07-10T03:08:52;93090.25;;;16.36;64.61
41503;BME280;27237;42.554;22.966;2022-07-10T03:11:18;93098.84;;;16.33;65.32
41503;BME280;27237;42.554;22.966;2022-07-10T03:13:43;93096.44;;;16.32;65.46
41503;BME280;27237;42.554;22.966;2022-07-10T03:16:08;93102.06;;;16.30;65.58
41503;BME280;27237;42.554;22.966;2022-07-10T03:18:34;93104.25;;;16.28;65.85
41503;BME280;27237;42.554;22.966;2022-07-10T03:20:59;93105.56;;;16.31;66.05
41503;BME280;27237;42.554;22.966;2022-07-10T03:23:25;93096.22;;;16.28;66.09
41503;BME280;27237;42.554;22.966;2022-07-10T03:25:51;93107.88;;;16.37;65.98
41503;BME280;27237;42.554;22.966;2022-07-10T03:28:16;93101.16;;;16.40;65.91
41503;BME280;27237;42.554;22.966;2022-07-10T03:30:42;93105.66;;;16.45;65.95
41503;BME280;27237;42.554;22.966;2022-07-10T03:33:07;93101.09;;;16.45;66.23
41503;BME280;27237;42.554;22.966;2022-07-10T03:35:33;93093.84;;;16.46;65.99
41503;BME280;27237;42.554;22.966;2022-07-10T03:37:58;93046.88;;;16.15;65.94
41503;BME280;27237;42.554;22.966;2022-07-10T03:40:24;93089.59;;;16.45;65.24
41503;BME280;27237;42.554;22.966;2022-07-10T03:42:51;93106.25;;;16.60;64.40
41503;BME280;27237;42.554;22.966;2022-07-10T03:45:17;93102.78;;;16.60;63.65
41503;BME280;27237;42.554;22.966;2022-07-10T03:47:42;93099.63;;;16.53;63.53
41503;BME280;27237;42.554;22.966;2022-07-10T03:50:08;93102.91;;;16.50;63.81
41503;BME280;27237;42.554;22.966;2022-07-10T03:52:34;93098.44;;;16.45;63.86
41503;BME280;27237;42.554;22.966;2022-07-10T03:55:00;93082.53;;;16.30;63.34
41503;BME280;27237;42.554;22.966;2022-07-10T03:57:25;93086.25;;;16.34;63.61
41503;BME280;27237;42.554;22.966;2022-07-10T04:00:10;93099.06;;;16.37;63.93
41503;BME280;27237;42.554;22.966;2022-07-10T04:02:36;93096.66;;;16.35;63.83
41503;BME280;27237;42.554;22.966;2022-07-10T04:05:05;93091.31;;;16.35;64.27
41503;BME280;27237;42.554;22.966;2022-07-10T04:07:31;93094.78;;;16.36;64.18
41503;BME280;27237;42.554;22.966;2022-07-10T04:09:57;93099.63;;;16.34;64.04
41503;BME280;27237;42.554;22.966;2022-07-10T04:12:22;93098.66;;;16.25;64.31
41503;BME280;27237;42.554;22.966;2022-07-10T04:14:47;93099.31;;;16.16;64.95
41503;BME280;27237;42.554;22.966;2022-07-10T04:17:17;93094.81;;;16.12;65.23
41503;BME280;27237;42.554;22.966;2022-07-10T04:19:42;93050.78;;;15.80;65.97
41503;BME280;27237;42.554;22.966;2022-07-10T04:22:07;93089.47;;;16.12;66.30
41503;BME280;27237;42.554;22.966;2022-07-10T04:24:33;93082.81;;;16.09;66.69
41503;BME280;27237;42.554;22.966;2022-07-10T04:26:58;93090.78;;;16.14;66.39
41503;BME280;27237;42.554;22.966;2022-07-10T04:29:24;93093.25;;;16.11;65.91
41503;BME280;27237;42.554;22.966;2022-07-10T04:31:49;93093.41;;;15.96;66.68
41503;BME280;27237;42.554;22.966;2022-07-10T04:34:15;93103.66;;;15.88;67.61
41503;BME280;27237;42.554;22.966;2022-07-10T04:36:40;93104.56;;;15.79;67.50
41503;BME280;27237;42.554;22.966;2022-07-10T04:39:06;93112.41;;;15.70;67.46
41503;BME280;27237;42.554;22.966;2022-07-10T04:41:31;93111.09;;;15.62;67.95
41503;BME280;27237;42.554;22.966;2022-07-10T04:43:56;93115.38;;;15.63;68.02
41503;BME280;27237;42.554;22.966;2022-07-10T04:46:22;93069.56;;;15.46;68.69
41503;BME280;27237;42.554;22.966;2022-07-10T04:48:47;93106.38;;;15.83;68.20
41503;BME280;27237;42.554;22.966;2022-07-10T04:51:13;93103.31;;;15.95;68.15
41503;BME280;27237;42.554;22.966;2022-07-10T04:53:38;93063.38;;;15.80;67.88
41503;BME280;27237;42.554;22.966;2022-07-10T04:56:04;93107.06;;;16.18;67.57
41503;BME280;27237;42.554;22.966;2022-07-10T04:58:29;93109.38;;;16.25;67.76
41503;BME280;27237;42.554;22.966;2022-07-10T05:00:55;93110.09;;;16.30;67.51
41503;BME280;27237;42.554;22.966;2022-07-10T05:03:20;93103.16;;;16.29;67.82
41503;BME280;27237;42.554;22.966;2022-07-10T05:05:46;93110.09;;;16.30;67.48
41503;BME280;27237;42.554;22.966;2022-07-10T05:08:11;93101.81;;;16.32;68.19
41503;BME280;27237;42.554;22.966;2022-07-10T05:10:36;93101.44;;;16.38;68.20
41503;BME280;27237;42.554;22.966;2022-07-10T05:13:02;93109.41;;;16.44;68.24
41503;BME280;27237;42.554;22.966;2022-07-10T05:15:27;93100.31;;;16.45;68.55
41503;BME280;27237;42.554;22.966;2022-07-10T05:17:53;93116.81;;;16.52;68.65
41503;BME280;27237;42.554;22.966;2022-07-10T05:20:18;93125.47;;;16.44;68.83
41503;BME280;27237;42.554;22.966;2022-07-10T05:22:44;93123.50;;;16.30;69.29
41503;BME280;27237;42.554;22.966;2022-07-10T05:25:09;93115.47;;;16.30;69.36
41503;BME280;27237;42.554;22.966;2022-07-10T05:27:35;93116.28;;;16.31;70.42
41503;BME280;27237;42.554;22.966;2022-07-10T05:30:00;93117.16;;;16.45;69.98
41503;BME280;27237;42.554;22.966;2022-07-10T05:32:25;93119.63;;;16.60;69.49
41503;BME280;27237;42.554;22.966;2022-07-10T05:34:51;93125.56;;;16.81;69.01
41503;BME280;27237;42.554;22.966;2022-07-10T05:37:17;93110.25;;;17.01;68.67
41503;BME280;27237;42.554;22.966;2022-07-10T05:39:43;93115.38;;;17.16;67.78
41503;BME280;27237;42.554;22.966;2022-07-10T05:42:08;93113.22;;;17.32;67.62
41503;BME280;27237;42.554;22.966;2022-07-10T05:44:34;93109.41;;;17.52;67.52
41503;BME280;27237;42.554;22.966;2022-07-10T05:46:59;93118.59;;;17.65;66.57
41503;BME280;27237;42.554;22.966;2022-07-10T05:49:25;93106.72;;;17.85;67.21
41503;BME280;27237;42.554;22.966;2022-07-10T05:51:50;93090.44;;;17.95;66.59
41503;BME280;27237;42.554;22.966;2022-07-10T05:54:16;93096.41;;;18.20;65.75
41503;BME280;27237;42.554;22.966;2022-07-10T05:56:41;93100.97;;;18.33;65.46
41503;BME280;27237;42.554;22.966;2022-07-10T05:59:07;93100.09;;;18.37;64.56
41503;BME280;27237;42.554;22.966;2022-07-10T06:01:32;93105.84;;;18.31;63.42
41503;BME280;27237;42.554;22.966;2022-07-10T06:03:58;93109.44;;;18.26;63.79
41503;BME280;27237;42.554;22.966;2022-07-10T06:06:23;93101.19;;;18.09;64.08
41503;BME280;27237;42.554;22.966;2022-07-10T06:08:49;93107.03;;;18.11;64.33
41503;BME280;27237;42.554;22.966;2022-07-10T06:11:14;93109.81;;;18.06;64.23
41503;BME280;27237;42.554;22.966;2022-07-10T06:13:41;93112.91;;;17.99;64.65
41503;BME280;27237;42.554;22.966;2022-07-10T06:16:06;93101.66;;;17.97;64.39
41503;BME280;27237;42.554;22.966;2022-07-10T06:18:32;93103.75;;;18.00;64.92
41503;BME280;27237;42.554;22.966;2022-07-10T06:20:57;93094.63;;;18.01;65.20
41503;BME280;27237;42.554;22.966;2022-07-10T06:23:23;93096.19;;;18.16;65.81
41503;BME280;27237;42.554;22.966;2022-07-10T06:25:49;93089.81;;;18.26;66.13
41503;BME280;27237;42.554;22.966;2022-07-10T06:28:15;93095.19;;;18.39;66.46
41503;BME280;27237;42.554;22.966;2022-07-10T06:30:42;93097.94;;;18.62;66.33
41503;BME280;27237;42.554;22.966;2022-07-10T06:33:07;93084.41;;;18.67;65.87
41503;BME280;27237;42.554;22.966;2022-07-10T06:35:32;93097.69;;;19.00;66.02
41503;BME280;27237;42.554;22.966;2022-07-10T06:37:58;93098.53;;;19.09;63.31
41503;BME280;27237;42.554;22.966;2022-07-10T06:40:25;93100.75;;;19.29;63.93
41503;BME280;27237;42.554;22.966;2022-07-10T06:42:51;93090.75;;;19.52;64.96
41503;BME280;27237;42.554;22.966;2022-07-10T06:45:16;93093.56;;;19.70;63.42
41503;BME280;27237;42.554;22.966;2022-07-10T06:47:42;93094.09;;;19.81;63.00
41503;BME280;27237;42.554;22.966;2022-07-10T06:50:26;93091.53;;;20.07;63.31
41503;BME280;27237;42.554;22.966;2022-07-10T06:52:52;93081.78;;;20.28;63.36
41503;BME280;27237;42.554;22.966;2022-07-10T06:55:18;93086.28;;;20.50;62.12
41503;BME280;27237;42.554;22.966;2022-07-10T06:57:44;93086.34;;;20.76;59.03
41503;BME280;27237;42.554;22.966;2022-07-10T07:00:10;93084.31;;;20.91;58.82
41503;BME280;27237;42.554;22.966;2022-07-10T07:02:35;93081.75;;;21.12;58.41
41503;BME280;27237;42.554;22.966;2022-07-10T07:05:01;93077.47;;;21.28;57.31
41503;BME280;27237;42.554;22.966;2022-07-10T07:07:27;93071.94;;;21.42;55.83
41503;BME280;27237;42.554;22.966;2022-07-10T07:09:52;93065.25;;;21.48;54.74
41503;BME280;27237;42.554;22.966;2022-07-10T07:12:18;93063.13;;;21.71;55.09
41503;BME280;27237;42.554;22.966;2022-07-10T07:14:44;93062.13;;;21.84;53.12
41503;BME280;27237;42.554;22.966;2022-07-10T07:17:09;93067.81;;;22.00;52.95
41503;BME280;27237;42.554;22.966;2022-07-10T07:19:37;93051.38;;;22.14;51.62
41503;BME280;27237;42.554;22.966;2022-07-10T07:22:22;93066.53;;;22.36;52.91
41503;BME280;27237;42.554;22.966;2022-07-10T07:25:08;93058.81;;;22.55;51.13
41503;BME280;27237;42.554;22.966;2022-07-10T07:27:35;93067.28;;;22.75;49.77
41503;BME280;27237;42.554;22.966;2022-07-10T07:30:03;93060.16;;;22.91;48.13
41503;BME280;27237;42.554;22.966;2022-07-10T07:32:28;93063.75;;;23.04;48.44
41503;BME280;27237;42.554;22.966;2022-07-10T07:34:54;93046.06;;;23.06;48.27
41503;BME280;27237;42.554;22.966;2022-07-10T07:37:19;93052.44;;;23.23;47.32
41503;BME280;27237;42.554;22.966;2022-07-10T07:39:45;93050.13;;;23.34;48.73
41503;BME280;27237;42.554;22.966;2022-07-10T07:42:10;93053.34;;;23.48;46.91
41503;BME280;27237;42.554;22.966;2022-07-10T07:44:35;93046.38;;;23.59;45.33
41503;BME280;27237;42.554;22.966;2022-07-10T07:47:01;93053.38;;;23.60;46.37
41503;BME280;27237;42.554;22.966;2022-07-10T07:49:26;93041.47;;;23.73;46.02
41503;BME280;27237;42.554;22.966;2022-07-10T07:51:52;93049.50;;;23.82;45.80
41503;BME280;27237;42.554;22.966;2022-07-10T07:54:17;93043.19;;;23.90;45.49
41503;BME280;27237;42.554;22.966;2022-07-10T07:56:43;93044.56;;;23.96;45.91
41503;BME280;27237;42.554;22.966;2022-07-10T07:59:08;93045.38;;;24.09;47.27
41503;BME280;27237;42.554;22.966;2022-07-10T08:01:33;93044.34;;;24.14;44.96
41503;BME280;27237;42.554;22.966;2022-07-10T08:03:59;93033.97;;;24.28;46.68
41503;BME280;27237;42.554;22.966;2022-07-10T08:06:24;93036.88;;;24.23;44.19
41503;BME280;27237;42.554;22.966;2022-07-10T08:08:50;93035.66;;;24.33;45.53
41503;BME280;27237;42.554;22.966;2022-07-10T08:11:16;93031.25;;;24.40;46.07
41503;BME280;27237;42.554;22.966;2022-07-10T08:13:41;93034.88;;;24.57;48.19
41503;BME280;27237;42.554;22.966;2022-07-10T08:16:08;93015.41;;;24.42;43.79
41503;BME280;27237;42.554;22.966;2022-07-10T08:18:33;93027.09;;;24.43;42.46
41503;BME280;27237;42.554;22.966;2022-07-10T08:20:59;93037.59;;;24.32;44.34
41503;BME280;27237;42.554;22.966;2022-07-10T08:23:24;93044.00;;;24.28;43.73
41503;BME280;27237;42.554;22.966;2022-07-10T08:25:50;93037.13;;;24.30;45.25
41503;BME280;27237;42.554;22.966;2022-07-10T08:28:15;93049.69;;;24.35;45.50
41503;BME280;27237;42.554;22.966;2022-07-10T08:30:40;93039.38;;;24.28;44.50
41503;BME280;27237;42.554;22.966;2022-07-10T08:33:08;93040.28;;;24.32;44.41
41503;BME280;27237;42.554;22.966;2022-07-10T08:35:33;93045.25;;;24.30;44.52
41503;BME280;27237;42.554;22.966;2022-07-10T08:37:59;93048.22;;;24.37;45.96
41503;BME280;27237;42.554;22.966;2022-07-10T08:40:25;93040.53;;;24.52;47.12
41503;BME280;27237;42.554;22.966;2022-07-10T08:42:51;93003.50;;;24.44;42.91
41503;BME280;27237;42.554;22.966;2022-07-10T08:45:16;93043.00;;;24.69;42.61
41503;BME280;27237;42.554;22.966;2022-07-10T08:47:42;93023.47;;;24.63;43.54
41503;BME280;27237;42.554;22.966;2022-07-10T08:50:23;93045.00;;;24.84;41.81
41503;BME280;27237;42.554;22.966;2022-07-10T08:55:23;93033.09;;;25.01;41.20
41503;BME280;27237;42.554;22.966;2022-07-10T08:57:50;93027.91;;;24.96;40.68
41503;BME280;27237;42.554;22.966;2022-07-10T09:00:16;93001.50;;;24.81;40.26
41503;BME280;27237;42.554;22.966;2022-07-10T09:02:42;93030.72;;;25.00;41.79
41503;BME280;27237;42.554;22.966;2022-07-10T09:05:07;93037.13;;;25.07;41.96
41503;BME280;27237;42.554;22.966;2022-07-10T09:07:36;93040.19;;;25.18;42.13
41503;BME280;27237;42.554;22.966;2022-07-10T09:10:07;93030.47;;;25.17;41.97
41503;BME280;27237;42.554;22.966;2022-07-10T09:15:16;93028.78;;;25.41;42.51
41503;BME280;27237;42.554;22.966;2022-07-10T09:17:52;93035.09;;;25.45;42.82
41503;BME280;27237;42.554;22.966;2022-07-10T09:22:56;93031.88;;;25.55;40.37
41503;BME280;27237;42.554;22.966;2022-07-10T09:25:21;93028.88;;;25.44;40.89
41503;BME280;27237;42.554;22.966;2022-07-10T09:27:53;93036.34;;;25.47;42.36
41503;BME280;27237;42.554;22.966;2022-07-10T09:30:37;93029.00;;;25.48;40.69
41503;BME280;27237;42.554;22.966;2022-07-10T09:36:09;93025.19;;;25.37;40.23
41503;BME280;27237;42.554;22.966;2022-07-10T09:41:12;93030.69;;;25.12;41.25
41503;BME280;27237;42.554;22.966;2022-07-10T09:43:43;93028.22;;;25.07;40.93
41503;BME280;27237;42.554;22.966;2022-07-10T09:46:10;93032.91;;;24.94;42.24
41503;BME280;27237;42.554;22.966;2022-07-10T09:48:36;93025.34;;;24.75;40.91
41503;BME280;27237;42.554;22.966;2022-07-10T09:51:02;93024.13;;;24.73;41.45
41503;BME280;27237;42.554;22.966;2022-07-10T09:53:27;93022.31;;;24.64;43.04
41503;BME280;27237;42.554;22.966;2022-07-10T09:55:54;93019.06;;;24.59;42.24
41503;BME280;27237;42.554;22.966;2022-07-10T09:58:26;93022.69;;;24.63;44.67
41503;BME280;27237;42.554;22.966;2022-07-10T10:00:55;92998.94;;;24.60;45.21
41503;BME280;27237;42.554;22.966;2022-07-10T10:03:24;93025.81;;;24.77;44.48
41503;BME280;27237;42.554;22.966;2022-07-10T10:05:54;93027.81;;;24.93;44.88
41503;BME280;27237;42.554;22.966;2022-07-10T10:10:50;93023.53;;;24.92;44.80
41503;BME280;27237;42.554;22.966;2022-07-10T10:13:20;93013.34;;;24.89;43.88
41503;BME280;27237;42.554;22.966;2022-07-10T10:15:47;93026.88;;;25.01;44.07
41503;BME280;27237;42.554;22.966;2022-07-10T10:18:17;93025.41;;;25.03;43.71
41503;BME280;27237;42.554;22.966;2022-07-10T10:20:45;93022.69;;;25.03;43.97
41503;BME280;27237;42.554;22.966;2022-07-10T10:23:14;93014.09;;;25.01;42.70
41503;BME280;27237;42.554;22.966;2022-07-10T10:25:42;93014.00;;;24.98;42.26
41503;BME280;27237;42.554;22.966;2022-07-10T10:28:10;93012.84;;;24.99;43.28
41503;BME280;27237;42.554;22.966;2022-07-10T10:30:37;93018.03;;;25.04;41.46
41503;BME280;27237;42.554;22.966;2022-07-10T10:36:09;93015.31;;;25.04;42.44
41503;BME280;27237;42.554;22.966;2022-07-10T10:41:26;93004.47;;;25.04;41.51
41503;BME280;27237;42.554;22.966;2022-07-10T10:49:16;93006.72;;;25.02;40.40
41503;BME280;27237;42.554;22.966;2022-07-10T10:52:04;93011.28;;;24.98;41.02
41503;BME280;27237;42.554;22.966;2022-07-10T10:57:21;93002.94;;;24.91;40.66
41503;BME280;27237;42.554;22.966;2022-07-10T10:59:47;92997.94;;;24.93;40.07
41503;BME280;27237;42.554;22.966;2022-07-10T11:02:27;92992.97;;;24.95;41.02
41503;BME280;27237;42.554;22.966;2022-07-10T11:10:31;92986.06;;;24.97;39.07
41503;BME280;27237;42.554;22.966;2022-07-10T11:15:26;92986.75;;;24.94;40.71
41503;BME280;27237;42.554;22.966;2022-07-10T11:17:52;92987.19;;;24.96;41.02
41503;BME280;27237;42.554;22.966;2022-07-10T11:20:18;92994.00;;;24.90;40.03
41503;BME280;27237;42.554;22.966;2022-07-10T11:22:52;92993.44;;;24.84;40.47
41503;BME280;27237;42.554;22.966;2022-07-10T11:28:07;92988.63;;;24.65;40.71
41503;BME280;27237;42.554;22.966;2022-07-10T11:30:54;92996.00;;;24.53;41.23
41503;BME280;27237;42.554;22.966;2022-07-10T11:33:21;92986.06;;;24.45;41.48
41503;BME280;27237;42.554;22.966;2022-07-10T11:35:49;92982.88;;;24.42;41.43
41503;BME280;27237;42.554;22.966;2022-07-10T11:38:25;92987.88;;;24.40;41.06
41503;BME280;27237;42.554;22.966;2022-07-10T11:40:51;92984.03;;;24.41;41.02
41503;BME280;27237;42.554;22.966;2022-07-10T11:43:19;92977.47;;;24.30;40.48
41503;BME280;27237;42.554;22.966;2022-07-10T11:45:47;92990.59;;;24.40;40.70
41503;BME280;27237;42.554;22.966;2022-07-10T11:48:20;92993.16;;;24.37;39.84
41503;BME280;27237;42.554;22.966;2022-07-10T11:50:46;92998.59;;;24.37;40.63
41503;BME280;27237;42.554;22.966;2022-07-10T11:53:12;92995.09;;;24.36;41.07
41503;BME280;27237;42.554;22.966;2022-07-10T11:55:38;92988.44;;;24.34;39.98
41503;BME280;27237;42.554;22.966;2022-07-10T11:58:19;92983.38;;;24.32;41.15
41503;BME280;27237;42.554;22.966;2022-07-10T12:01:04;92993.97;;;24.37;41.04
41503;BME280;27237;42.554;22.966;2022-07-10T12:03:32;92985.50;;;24.39;40.75
41503;BME280;27237;42.554;22.966;2022-07-10T12:06:05;92981.34;;;24.29;41.31
41503;BME280;27237;42.554;22.966;2022-07-10T12:08:42;92984.25;;;24.36;40.43
41503;BME280;27237;42.554;22.966;2022-07-10T12:11:14;92992.50;;;24.28;39.63
41503;BME280;27237;42.554;22.966;2022-07-10T12:13:40;92992.97;;;24.30;40.73
41503;BME280;27237;42.554;22.966;2022-07-10T12:16:05;92986.06;;;24.32;40.98
41503;BME280;27237;42.554;22.966;2022-07-10T12:18:31;92984.03;;;24.29;39.46
41503;BME280;27237;42.554;22.966;2022-07-10T12:20:58;92983.00;;;24.34;40.67
41503;BME280;27237;42.554;22.966;2022-07-10T12:23:25;92962.00;;;24.31;40.96
41503;BME280;27237;42.554;22.966;2022-07-10T12:25:50;92982.44;;;24.40;40.57
41503;BME280;27237;42.554;22.966;2022-07-10T12:28:16;92964.59;;;24.39;38.41
41503;BME280;27237;42.554;22.966;2022-07-10T12:30:43;92972.97;;;24.47;37.89
41503;BME280;27237;42.554;22.966;2022-07-10T12:33:19;92977.03;;;24.40;40.02
41503;BME280;27237;42.554;22.966;2022-07-10T12:38:18;92976.56;;;24.51;39.50
41503;BME280;27237;42.554;22.966;2022-07-10T12:40:44;92972.63;;;24.60;39.26
41503;BME280;27237;42.554;22.966;2022-07-10T12:43:10;92963.00;;;24.51;37.60
41503;BME280;27237;42.554;22.966;2022-07-10T12:45:37;92972.25;;;24.62;37.28
41503;BME280;27237;42.554;22.966;2022-07-10T12:48:04;92969.56;;;24.50;34.05
41503;BME280;27237;42.554;22.966;2022-07-10T12:50:31;92944.38;;;24.37;35.31
41503;BME280;27237;42.554;22.966;2022-07-10T12:53:12;92969.00;;;24.56;36.77
41503;BME280;27237;42.554;22.966;2022-07-10T12:55:39;92965.53;;;24.44;38.30
41503;BME280;27237;42.554;22.966;2022-07-10T12:58:08;92965.72;;;24.51;36.89
41503;BME280;27237;42.554;22.966;2022-07-10T13:00:53;92951.38;;;24.38;36.07
41503;BME280;27237;42.554;22.966;2022-07-10T13:03:20;92964.94;;;24.50;36.69
41503;BME280;27237;42.554;22.966;2022-07-10T13:05:49;92967.31;;;24.52;37.49
41503;BME280;27237;42.554;22.966;2022-07-10T13:08:16;92966.19;;;24.53;37.14
41503;BME280;27237;42.554;22.966;2022-07-10T13:10:47;92969.69;;;24.53;39.27
41503;BME280;27237;42.554;22.966;2022-07-10T13:13:13;92966.50;;;24.51;38.21
41503;BME280;27237;42.554;22.966;2022-07-10T13:15:39;92962.31;;;24.54;37.07
41503;BME280;27237;42.554;22.966;2022-07-10T13:18:25;92968.25;;;24.44;38.74
41503;BME280;27237;42.554;22.966;2022-07-10T13:20:52;92964.06;;;24.46;39.63
41503;BME280;27237;42.554;22.966;2022-07-10T13:23:19;92963.47;;;24.40;41.25
41503;BME280;27237;42.554;22.966;2022-07-10T13:25:48;92969.44;;;24.34;39.52
41503;BME280;27237;42.554;22.966;2022-07-10T13:28:14;92947.56;;;24.14;40.22
41503;BME280;27237;42.554;22.966;2022-07-10T13:30:42;92935.72;;;24.07;40.20
41503;BME280;27237;42.554;22.966;2022-07-10T13:33:07;92965.75;;;24.26;40.85